Time;durP1;ratioP1;P1;durP2;ratioP2;P2;SDS_P1;SDS_P2;PMS_P1;PMS_P2;Temp;Humidity;BMP_temperature;BMP_pressure;BME280_temperature;BME280_humidity;BME280_pressure;Samples;Min_cycle;Max_cycle;Signal;HPM_P1;HPM_P2
2023/12/09 00:01:49;;;;;;;19.07;17.03;;;;;;;2.11;96.10;92728.78;5110094;28;20183;-76
2023/12/09 00:04:14;;;;;;;21.83;19.43;;;;;;;2.11;96.04;92743.44;5109444;28;20279;-76
2023/12/09 00:06:47;;;;;;;21.07;18.87;;;;;;;2.07;96.26;92732.78;5110201;28;20188;-76
2023/12/09 00:09:13;;;;;;;20.83;18.50;;;;;;;1.94;95.67;92696.19;5109404;28;20219;-75
2023/12/09 00:11:39;;;;;;;22.20;18.03;;;;;;;2.06;95.77;92736.38;5109545;28;20597;-75
2023/12/09 00:14:04;;;;;;;17.67;15.83;;;;;;;2.01;96.63;92738.06;5109049;28;20291;-75
2023/12/09 00:16:30;;;;;;;17.13;15.53;;;;;;;1.95;96.62;92737.16;5109904;28;20184;-76
2023/12/09 00:18:56;;;;;;;16.07;14.73;;;;;;;1.94;96.75;92737.38;5108947;28;20315;-75
2023/12/09 00:21:22;;;;;;;16.33;15.00;;;;;;;1.98;96.01;92734.13;5109760;28;20172;-75
2023/12/09 00:23:47;;;;;;;17.60;15.97;;;;;;;1.95;95.85;92729.44;5109073;28;20235;-75
2023/12/09 00:26:12;;;;;;;15.70;14.30;;;;;;;1.79;96.82;92731.91;5109708;28;20184;-76
2023/12/09 00:28:38;;;;;;;16.23;14.60;;;;;;;1.59;97.81;92730.41;5108815;28;20249;-76
2023/12/09 00:31:03;;;;;;;17.63;15.87;;;;;;;1.46;98.86;92727.25;5109642;28;20180;-75
2023/12/09 00:33:29;;;;;;;17.07;15.67;;;;;;;1.45;98.39;92723.91;5105012;28;20183;-75
2023/12/09 00:35:54;;;;;;;17.30;15.90;;;;;;;1.38;98.24;92723.22;5109658;28;20172;-75
2023/12/09 00:38:19;;;;;;;16.77;15.13;;;;;;;1.28;98.51;92722.97;5091053;28;20200;-76
2023/12/09 00:40:45;;;;;;;15.80;14.20;;;;;;;1.08;98.20;92713.94;5104307;28;20195;-75
2023/12/09 00:43:10;;;;;;;15.60;14.30;;;;;;;1.16;98.73;92735.00;5109513;28;20212;-75
2023/12/09 00:45:35;;;;;;;16.33;14.93;;;;;;;1.07;99.17;92731.19;5106453;28;20204;-74
2023/12/09 00:48:01;;;;;;;18.17;16.48;;;;;;;1.10;98.94;92735.88;5101756;28;20432;-73
2023/12/09 00:50:26;;;;;;;16.30;14.63;;;;;;;1.06;98.01;92701.31;5108873;28;20220;-73
2023/12/09 00:52:51;;;;;;;17.33;15.83;;;;;;;1.05;98.17;92727.25;5109300;28;20192;-73
2023/12/09 00:55:17;;;;;;;16.43;15.03;;;;;;;1.10;97.38;92728.16;5108913;28;20228;-73
2023/12/09 00:57:42;;;;;;;15.93;14.63;;;;;;;1.07;97.42;92731.19;5109204;28;20210;-73
2023/12/09 01:00:08;;;;;;;16.60;15.07;;;;;;;0.92;97.90;92715.34;5111458;28;20208;-73
2023/12/09 01:02:34;;;;;;;16.00;14.70;;;;;;;1.01;97.34;92733.84;5125746;28;20207;-73
2023/12/09 01:04:59;;;;;;;17.20;15.50;;;;;;;0.95;96.98;92727.00;5112719;28;20220;-73
2023/12/09 01:07:24;;;;;;;17.33;15.87;;;;;;;0.92;97.40;92733.34;5112845;28;20811;-73
2023/12/09 01:09:50;;;;;;;15.80;14.50;;;;;;;0.92;97.31;92743.63;5112327;28;20261;-73
2023/12/09 01:12:15;;;;;;;17.07;15.57;;;;;;;0.88;97.34;92745.06;5111094;28;20188;-73
2023/12/09 01:14:40;;;;;;;15.70;14.37;;;;;;;0.85;97.44;92747.28;5112270;28;20226;-73
2023/12/09 01:17:06;;;;;;;14.73;13.53;;;;;;;0.87;97.76;92738.34;5110751;28;20188;-73
2023/12/09 01:19:31;;;;;;;16.80;15.50;;;;;;;0.93;98.17;92744.41;5093258;28;20234;-73
2023/12/09 01:21:57;;;;;;;16.33;14.97;;;;;;;0.91;98.24;92748.97;5107430;28;20199;-73
2023/12/09 01:24:22;;;;;;;17.07;15.57;;;;;;;1.00;98.19;92745.88;5112022;28;20224;-73
2023/12/09 01:26:47;;;;;;;17.63;16.03;;;;;;;1.17;97.40;92751.19;5112566;28;20240;-73
2023/12/09 01:29:13;;;;;;;16.60;15.10;;;;;;;1.31;96.71;92745.66;5111858;28;20224;-73
2023/12/09 01:31:38;;;;;;;15.73;14.53;;;;;;;1.22;96.92;92749.56;5113219;28;20184;-73
2023/12/09 01:34:04;;;;;;;16.20;14.90;;;;;;;1.29;96.93;92734.81;5112149;28;20228;-73
2023/12/09 01:36:29;;;;;;;16.00;14.63;;;;;;;1.43;97.39;92746.47;5112784;28;20195;-73
2023/12/09 01:38:54;;;;;;;15.17;13.93;;;;;;;1.49;97.40;92750.72;5111741;28;20235;-73
2023/12/09 01:41:20;;;;;;;16.23;14.83;;;;;;;1.61;96.81;92746.41;5112449;28;20218;-73
2023/12/09 01:43:49;;;;;;;17.37;15.97;;;;;;;1.65;96.33;92729.53;5111575;28;20296;-73
2023/12/09 01:46:15;;;;;;;16.10;14.97;;;;;;;1.85;95.71;92739.53;5112426;28;20191;-73
2023/12/09 01:48:41;;;;;;;16.33;14.83;;;;;;;1.78;96.25;92738.03;5111460;28;20211;-73
2023/12/09 01:51:07;;;;;;;16.63;15.13;;;;;;;1.67;97.43;92727.53;5109756;28;20183;-73
2023/12/09 01:53:34;;;;;;;17.13;15.63;;;;;;;1.73;97.73;92737.94;5118643;28;20263;-73
2023/12/09 01:56:03;;;;;;;15.47;14.10;;;;;;;1.76;97.10;92727.19;5112141;28;20222;-73
2023/12/09 01:58:29;;;;;;;16.50;14.90;;;;;;;1.75;96.81;92733.34;5110973;28;20292;-74
2023/12/09 02:00:55;;;;;;;19.30;17.23;;;;;;;1.86;96.15;92722.28;5112161;28;20206;-73
2023/12/09 02:03:20;;;;;;;17.70;15.90;;;;;;;1.83;96.16;92720.13;5111693;28;20184;-72
2023/12/09 02:05:46;;;;;;;17.40;15.90;;;;;;;1.89;96.35;92711.53;5111924;28;20196;-73
2023/12/09 02:08:11;;;;;;;16.07;14.67;;;;;;;1.76;96.35;92704.03;5111963;28;20184;-73
2023/12/09 02:10:38;;;;;;;15.43;14.23;;;;;;;1.77;95.44;92719.25;5111087;28;20243;-73
2023/12/09 02:13:03;;;;;;;14.23;13.10;;;;;;;1.71;96.20;92706.50;5111697;28;20177;-73
2023/12/09 02:15:40;;;;;;;14.63;13.50;;;;;;;1.45;96.12;92694.81;5111275;28;20227;-72
2023/12/09 02:18:07;;;;;;;14.03;13.00;;;;;;;1.45;96.11;92716.19;5092507;28;20184;-73
2023/12/09 02:20:33;;;;;;;13.23;12.13;;;;;;;1.39;96.29;92718.84;5111030;28;20223;-73
2023/12/09 02:23:08;;;;;;;14.97;13.87;;;;;;;1.16;97.45;92719.56;5112040;28;20207;-73
2023/12/09 02:25:34;;;;;;;14.50;13.43;;;;;;;0.95;99.51;92721.84;5093145;28;20230;-74
2023/12/09 02:28:05;;;;;;;14.90;13.80;;;;;;;1.05;98.65;92725.47;5093269;28;20184;-73
2023/12/09 02:30:43;;;;;;;13.30;12.23;;;;;;;1.07;98.05;92710.63;5100460;28;20251;-73
2023/12/09 02:33:11;;;;;;;14.33;13.27;;;;;;;0.92;98.23;92696.59;5093040;28;20253;-73
2023/12/09 02:35:41;;;;;;;15.43;14.23;;;;;;;0.84;99.00;92720.03;5110806;28;20231;-74
2023/12/09 02:38:07;;;;;;;13.90;12.70;;;;;;;0.75;99.20;92716.94;5111105;28;21200;-73
2023/12/09 02:40:33;;;;;;;14.60;13.57;;;;;;;0.66;98.39;92707.19;5110374;28;20224;-73
2023/12/09 02:42:59;;;;;;;13.97;12.87;;;;;;;0.67;98.59;92724.19;5111199;28;20194;-72
2023/12/09 02:45:25;;;;;;;14.43;13.43;;;;;;;0.67;99.27;92706.97;5110610;28;20223;-73
2023/12/09 02:47:50;;;;;;;13.57;12.50;;;;;;;0.72;98.79;92707.09;5111200;28;20194;-73
2023/12/09 02:50:15;;;;;;;13.47;12.57;;;;;;;0.68;98.22;92693.16;5110166;28;20224;-73
2023/12/09 02:52:41;;;;;;;13.80;12.60;;;;;;;0.63;98.04;92713.56;5111079;28;20247;-76
2023/12/09 02:55:08;;;;;;;13.90;12.77;;;;;;;0.55;98.46;92715.63;5110346;28;20254;-76
2023/12/09 02:57:33;;;;;;;14.47;13.47;;;;;;;0.59;98.13;92699.56;5110803;28;20180;-76
2023/12/09 03:00:00;;;;;;;14.37;13.37;;;;;;;0.53;97.93;92713.25;5110274;28;20216;-76
2023/12/09 03:02:25;;;;;;;15.27;14.27;;;;;;;0.53;97.71;92702.22;5110999;28;20192;-75
2023/12/09 03:04:50;;;;;;;14.30;13.30;;;;;;;0.65;97.66;92710.75;5110278;28;20254;-76
2023/12/09 03:07:20;;;;;;;15.43;14.33;;;;;;;0.60;97.50;92698.56;5110854;28;20180;-75
2023/12/09 03:09:46;;;;;;;14.63;13.47;;;;;;;0.56;97.76;92705.13;5109836;28;20283;-75
2023/12/09 03:12:11;;;;;;;15.33;14.07;;;;;;;0.61;97.30;92704.50;5110541;28;20188;-76
2023/12/09 03:14:37;;;;;;;14.77;13.77;;;;;;;0.50;97.10;92702.66;5110161;28;20283;-76
2023/12/09 03:17:02;;;;;;;15.43;14.33;;;;;;;0.39;97.45;92704.13;5109886;28;20195;-76
2023/12/09 03:19:27;;;;;;;15.90;14.67;;;;;;;0.46;97.59;92707.44;5109857;28;20316;-76
2023/12/09 03:21:53;;;;;;;15.40;14.20;;;;;;;0.38;97.35;92709.50;5109478;28;20184;-75
2023/12/09 03:24:18;;;;;;;15.87;14.77;;;;;;;0.28;97.56;92693.81;5109764;28;20288;-75
2023/12/09 03:26:43;;;;;;;14.33;13.30;;;;;;;0.26;98.20;92696.59;5109788;28;20180;-75
2023/12/09 03:29:09;;;;;;;14.63;13.37;;;;;;;0.42;97.64;92711.41;5109927;28;20232;-76
2023/12/09 03:31:34;;;;;;;14.77;13.67;;;;;;;0.42;97.42;92713.97;5110063;28;20209;-75
2023/12/09 03:33:59;;;;;;;14.80;13.80;;;;;;;0.44;97.34;92713.75;5110091;28;20292;-75
2023/12/09 03:36:25;;;;;;;14.30;13.10;;;;;;;0.42;97.37;92719.13;5110283;28;20184;-75
2023/12/09 03:38:50;;;;;;;14.50;13.60;;;;;;;0.38;97.27;92718.00;5109676;28;20223;-75
2023/12/09 03:41:15;;;;;;;15.67;14.50;;;;;;;0.39;97.49;92714.41;5110039;28;20180;-76
2023/12/09 03:43:41;;;;;;;14.63;13.63;;;;;;;0.32;97.30;92707.78;5109452;28;20969;-76
2023/12/09 03:46:06;;;;;;;15.73;14.53;;;;;;;0.31;97.34;92714.72;5110160;28;20160;-76
2023/12/09 03:48:31;;;;;;;14.93;13.73;;;;;;;0.30;97.32;92720.03;5104388;28;20256;-76
2023/12/09 03:50:57;;;;;;;14.97;13.90;;;;;;;0.11;97.47;92696.16;5110110;28;20176;-75
2023/12/09 03:53:22;;;;;;;15.43;14.23;;;;;;;0.25;97.74;92718.13;5109221;28;20180;-75
2023/12/09 03:55:50;;;;;;;13.60;12.70;;;;;;;0.27;97.31;92705.88;5109771;28;20184;-76
2023/12/09 03:58:16;;;;;;;14.43;13.43;;;;;;;0.16;97.35;92713.50;5108828;28;20223;-75
2023/12/09 04:00:41;;;;;;;14.57;13.47;;;;;;;0.03;97.52;92702.34;5109636;28;20198;-76
2023/12/09 04:03:07;;;;;;;13.80;12.80;;;;;;;0.14;96.89;92703.44;5110088;28;20247;-76
2023/12/09 04:05:33;;;;;;;13.40;12.40;;;;;;;-0.01;97.50;92700.44;5103649;28;20228;-76
2023/12/09 04:07:59;;;;;;;15.27;14.13;;;;;;;0.01;98.08;92701.00;5085833;28;20184;-76
2023/12/09 04:10:25;;;;;;;15.13;14.07;;;;;;;0.11;97.67;92719.25;5109187;28;20224;-75
2023/12/09 04:12:50;;;;;;;15.27;14.07;;;;;;;-0.28;97.41;92661.41;5109614;28;20191;-76
2023/12/09 04:15:15;;;;;;;13.70;12.70;;;;;;;0.14;97.72;92730.88;5104758;28;20228;-76
2023/12/09 04:17:41;;;;;;;14.73;13.73;;;;;;;-0.08;98.55;92718.44;5109425;28;20210;-75
2023/12/09 04:20:08;;;;;;;14.67;13.37;;;;;;;0.00;97.98;92732.81;5108847;28;20257;-75
2023/12/09 04:22:36;;;;;;;14.83;13.70;;;;;;;0.00;98.26;92738.69;5109521;28;20180;-74
2023/12/09 04:25:04;;;;;;;15.53;14.13;;;;;;;0.05;98.05;92740.63;5091257;28;20748;-73
2023/12/09 04:27:31;;;;;;;15.30;13.93;;;;;;;0.11;97.98;92728.75;5106922;28;20177;-73
2023/12/09 04:29:57;;;;;;;15.43;14.17;;;;;;;-0.01;98.05;92732.00;5091103;28;20220;-73
2023/12/09 04:32:22;;;;;;;15.40;14.30;;;;;;;0.13;97.98;92732.66;5098094;28;20188;-73
2023/12/09 04:34:48;;;;;;;14.33;13.23;;;;;;;0.11;97.86;92726.94;5112934;28;20243;-73
2023/12/09 04:37:13;;;;;;;16.73;15.23;;;;;;;0.03;98.03;92722.88;5113517;28;20192;-73
2023/12/09 04:39:39;;;;;;;15.87;14.50;;;;;;;0.08;97.97;92729.94;5094849;28;20228;-73
2023/12/09 04:42:04;;;;;;;16.93;15.70;;;;;;;0.14;97.95;92728.31;5113284;28;20180;-73
2023/12/09 04:44:30;;;;;;;15.37;14.27;;;;;;;0.08;97.70;92739.44;5112797;28;20845;-73
2023/12/09 04:46:55;;;;;;;15.50;14.33;;;;;;;0.14;97.41;92736.78;5113229;28;20192;-74
2023/12/09 04:49:21;;;;;;;14.67;13.60;;;;;;;0.09;97.09;92721.25;5112580;28;20220;-73
2023/12/09 04:51:47;;;;;;;14.77;13.53;;;;;;;0.10;97.24;92745.91;5113029;28;20180;-73
2023/12/09 04:54:12;;;;;;;14.87;13.73;;;;;;;0.14;97.90;92738.59;5120637;28;20234;-73
2023/12/09 04:56:37;;;;;;;15.37;14.27;;;;;;;0.12;97.71;92741.38;5113188;28;20180;-73
2023/12/09 04:59:03;;;;;;;15.63;14.43;;;;;;;0.08;97.77;92747.91;5112549;28;20272;-73
2023/12/09 05:01:28;;;;;;;15.27;14.00;;;;;;;0.11;97.52;92744.91;5112608;28;20855;-73
2023/12/09 05:03:54;;;;;;;15.33;14.17;;;;;;;0.04;97.89;92741.63;5112846;28;20216;-73
2023/12/09 05:06:20;;;;;;;16.00;14.80;;;;;;;0.20;98.23;92740.31;5094374;28;20176;-72
2023/12/09 05:08:45;;;;;;;15.80;14.40;;;;;;;0.10;97.98;92752.81;5104733;28;20853;-73
2023/12/09 05:11:11;;;;;;;15.87;14.77;;;;;;;0.10;97.98;92738.22;5108505;28;20227;-73
2023/12/09 05:13:36;;;;;;;15.20;13.97;;;;;;;0.12;97.66;92748.28;5111394;28;20215;-73
2023/12/09 05:16:02;;;;;;;16.50;15.23;;;;;;;0.11;98.20;92752.59;5112173;28;20229;-73
2023/12/09 05:18:27;;;;;;;16.63;15.00;;;;;;;0.22;98.13;92762.19;5106398;28;20176;-74
2023/12/09 05:20:53;;;;;;;14.07;12.87;;;;;;;0.21;97.27;92749.56;5111716;28;20177;-73
2023/12/09 05:23:18;;;;;;;16.03;15.03;;;;;;;0.42;97.22;92754.28;5109951;28;20168;-73
2023/12/09 05:25:44;;;;;;;14.83;13.80;;;;;;;0.30;97.76;92769.59;5103931;28;20187;-73
2023/12/09 05:28:09;;;;;;;16.63;15.43;;;;;;;0.57;97.73;92770.91;5092739;28;20195;-74
2023/12/09 05:30:35;;;;;;;14.93;13.83;;;;;;;0.60;97.65;92790.25;5099034;28;20251;-74
2023/12/09 05:33:00;;;;;;;15.73;14.43;;;;;;;0.82;96.63;92789.59;5100770;28;20205;-80
2023/12/09 05:35:26;;;;;;;16.33;15.13;;;;;;;1.09;96.24;92797.78;5111225;28;20224;-80
2023/12/09 05:37:51;;;;;;;15.23;13.93;;;;;;;1.13;95.41;92797.13;5110038;28;20191;-77
2023/12/09 05:40:17;;;;;;;14.77;13.47;;;;;;;1.06;96.29;92780.22;5118662;28;20258;-77
2023/12/09 05:42:42;;;;;;;18.27;16.23;;;;;;;1.29;95.86;92796.50;5109996;28;20192;-81
2023/12/09 05:45:08;;;;;;;14.60;13.47;;;;;;;1.25;95.47;92785.09;5110521;28;20224;-83
2023/12/09 05:47:34;;;;;;;17.13;15.60;;;;;;;1.37;95.49;92796.22;5093784;28;20222;-76
2023/12/09 05:49:59;;;;;;;14.40;13.10;;;;;;;1.00;96.03;92802.44;5110917;28;20227;-74
2023/12/09 05:52:25;;;;;;;15.87;14.57;;;;;;;1.28;96.17;92794.97;5115678;28;20199;-78
2023/12/09 05:54:50;;;;;;;15.90;14.50;;;;;;;1.52;95.16;92801.75;5111386;28;20220;-79
2023/12/09 05:57:16;;;;;;;21.23;17.87;;;;;;;1.40;95.77;92798.34;5106915;28;20199;-73
2023/12/09 05:59:42;;;;;;;19.57;16.40;;;;;;;1.85;96.79;92795.34;5110465;28;20238;-73
2023/12/09 06:02:08;;;;;;;20.83;17.70;;;;;;;1.83;95.36;92803.28;5107583;28;20192;-73
2023/12/09 06:04:33;;;;;;;20.67;16.63;;;;;;;1.74;94.73;92802.03;5110889;28;20212;-73
2023/12/09 06:06:59;;;;;;;17.23;15.40;;;;;;;1.81;93.63;92794.19;5089606;28;20924;-72
2023/12/09 06:09:24;;;;;;;19.90;17.07;;;;;;;1.96;93.64;92807.44;5108752;28;20314;-72
2023/12/09 06:11:49;;;;;;;23.57;18.07;;;;;;;1.99;93.00;92776.13;5109776;28;20199;-72
2023/12/09 06:14:14;;;;;;;22.10;17.27;;;;;;;2.13;92.80;92805.78;5110228;28;20227;-72
2023/12/09 06:16:40;;;;;;;22.17;19.37;;;;;;;1.77;94.47;92813.69;5104379;28;20184;-73
2023/12/09 06:19:05;;;;;;;26.80;21.37;;;;;;;2.03;93.02;92813.28;5109515;28;20233;-72
2023/12/09 06:21:31;;;;;;;23.33;21.03;;;;;;;1.71;93.19;92793.97;5108393;28;20187;-73
2023/12/09 06:23:56;;;;;;;19.77;17.90;;;;;;;1.92;93.42;92796.00;5109782;28;20228;-72
2023/12/09 06:26:21;;;;;;;22.00;19.87;;;;;;;2.22;92.48;92812.19;5110543;28;20188;-72
2023/12/09 06:28:47;;;;;;;15.80;14.43;;;;;;;1.93;93.61;92807.91;5110508;28;20307;-72
2023/12/09 06:31:12;;;;;;;22.53;20.43;;;;;;;1.90;93.95;92806.53;5110849;28;20180;-73
2023/12/09 06:33:38;;;;;;;17.43;15.97;;;;;;;2.04;92.27;92810.47;5109895;28;20242;-72
2023/12/09 06:36:05;;;;;;;24.27;21.57;;;;;;;1.94;91.93;92801.72;5109985;28;20192;-75
2023/12/09 06:38:30;;;;;;;25.63;23.23;;;;;;;1.72;93.67;92805.81;5110068;28;20188;-75
2023/12/09 06:40:55;;;;;;;22.27;20.17;;;;;;;1.90;93.24;92808.34;5110360;28;20187;-75
2023/12/09 06:43:21;;;;;;;20.17;18.30;;;;;;;2.02;92.80;92816.84;5110125;28;20184;-75
2023/12/09 06:45:46;;;;;;;19.17;17.27;;;;;;;1.77;92.00;92814.47;5110272;28;20268;-74
2023/12/09 06:48:12;;;;;;;17.53;16.00;;;;;;;1.80;93.95;92813.22;5110910;28;20188;-75
2023/12/09 06:50:38;;;;;;;19.77;17.53;;;;;;;1.92;93.71;92819.97;5110249;28;20216;-74
2023/12/09 06:53:03;;;;;;;16.33;15.03;;;;;;;2.11;92.34;92828.41;5119985;28;20194;-74
2023/12/09 06:55:29;;;;;;;18.57;16.73;;;;;;;2.42;91.29;92828.88;5112296;28;20231;-83
2023/12/09 06:57:54;;;;;;;16.90;15.67;;;;;;;1.93;91.39;92810.47;5109222;28;20224;-77
2023/12/09 07:00:19;;;;;;;17.20;15.80;;;;;;;2.13;91.42;92834.91;5106191;28;20216;-79
2023/12/09 07:02:45;;;;;;;18.30;16.80;;;;;;;2.15;90.46;92838.03;5101488;28;20203;-80
2023/12/09 07:05:13;;;;;;;16.30;14.97;;;;;;;1.96;91.85;92828.03;5106002;28;20208;-79
2023/12/09 07:07:40;;;;;;;16.53;14.87;;;;;;;2.46;90.51;92836.97;5113294;28;20188;-83
2023/12/09 07:10:06;;;;;;;17.00;15.50;;;;;;;2.25;91.60;92822.03;5109038;28;20303;-79
2023/12/09 07:12:32;;;;;;;15.97;14.60;;;;;;;2.55;89.98;92833.78;5109886;28;20184;-79
2023/12/09 07:15:00;;;;;;;16.43;14.97;;;;;;;2.15;90.09;92826.97;5109368;28;20220;-80
2023/12/09 07:17:25;;;;;;;15.90;14.40;;;;;;;2.32;89.83;92851.81;5104572;28;20182;-81
2023/12/09 07:19:52;;;;;;;16.10;14.80;;;;;;;2.69;88.01;92842.88;5106658;28;20224;-81
2023/12/09 07:22:18;;;;;;;15.67;14.37;;;;;;;2.40;88.79;92846.34;5109985;28;20295;-80
2023/12/09 07:24:44;;;;;;;15.43;14.17;;;;;;;2.91;97.26;92837.94;5108823;28;20311;-81
2023/12/09 07:27:09;;;;;;;16.67;15.13;;;;;;;2.04;91.02;92849.09;5109818;28;20196;-80
2023/12/09 07:29:35;;;;;;;15.33;13.97;;;;;;;2.36;90.00;92829.78;5109162;28;20223;-81
2023/12/09 07:32:00;;;;;;;17.57;15.83;;;;;;;2.72;88.79;92829.56;5109911;28;20188;-78
2023/12/09 07:34:26;;;;;;;15.97;14.47;;;;;;;3.10;87.27;92852.25;5109469;28;20216;-83
2023/12/09 07:36:51;;;;;;;16.17;14.73;;;;;;;2.43;87.17;92855.44;5110278;28;20187;-84
2023/12/09 07:39:17;;;;;;;16.93;15.50;;;;;;;2.53;89.38;92850.50;5098605;28;20248;-82
2023/12/09 07:41:43;;;;;;;18.33;16.53;;;;;;;2.69;88.28;92855.00;5104255;28;20248;-79
2023/12/09 07:44:09;;;;;;;26.87;22.40;;;;;;;2.81;87.31;92853.97;5102629;28;20272;-80
2023/12/09 07:46:36;;;;;;;31.10;22.90;;;;;;;2.79;85.78;92858.56;5109334;28;20217;-80
2023/12/09 07:49:01;;;;;;;30.90;23.77;;;;;;;2.61;87.01;92850.16;5107382;28;20246;-78
2023/12/09 07:51:27;;;;;;;26.50;22.43;;;;;;;2.66;87.58;92855.44;5108303;28;20196;-77
2023/12/09 07:53:52;;;;;;;20.33;18.30;;;;;;;2.57;86.31;92838.75;5122201;28;20252;-77
2023/12/09 07:56:17;;;;;;;18.83;16.97;;;;;;;2.70;86.57;92835.94;5108831;28;20202;-77
2023/12/09 07:58:43;;;;;;;16.77;15.33;;;;;;;2.74;87.29;92860.25;5108402;28;20235;-78
2023/12/09 08:01:09;;;;;;;16.03;14.63;;;;;;;2.67;88.30;92867.31;5109595;28;20214;-77
2023/12/09 08:03:34;;;;;;;16.10;14.77;;;;;;;2.82;87.44;92854.75;5105859;28;20219;-77
2023/12/09 08:06:00;;;;;;;15.40;14.10;;;;;;;2.81;87.76;92864.28;5109624;28;20195;-78
2023/12/09 08:08:27;;;;;;;16.73;15.33;;;;;;;3.07;86.45;92881.84;5105267;28;20199;-78
2023/12/09 08:10:52;;;;;;;16.50;14.90;;;;;;;2.95;86.73;92882.88;5109166;28;20183;-78
2023/12/09 08:13:17;;;;;;;19.30;17.50;;;;;;;3.40;85.54;92888.19;5108309;28;20180;-77
2023/12/09 08:15:43;;;;;;;18.83;17.03;;;;;;;3.04;86.33;92884.09;5108350;28;20191;-77
2023/12/09 08:18:09;;;;;;;16.67;15.00;;;;;;;2.52;87.72;92890.94;5090208;28;20188;-78
2023/12/09 08:20:34;;;;;;;18.07;16.33;;;;;;;2.67;88.13;92877.63;5108233;28;20261;-78
2023/12/09 08:23:00;;;;;;;19.13;17.17;;;;;;;2.30;88.97;92865.94;5110041;28;20183;-78
2023/12/09 08:25:26;;;;;;;18.40;16.80;;;;;;;2.56;89.36;92875.81;5112849;28;20324;-79
2023/12/09 08:27:51;;;;;;;19.03;15.83;;;;;;;2.82;89.88;92880.50;5102291;28;20190;-78
2023/12/09 08:30:17;;;;;;;17.03;15.63;;;;;;;2.48;89.44;92868.41;5103677;28;20231;-79
2023/12/09 08:32:43;;;;;;;18.00;16.37;;;;;;;2.68;89.84;92874.03;5100130;28;20207;-79
2023/12/09 08:35:11;;;;;;;16.07;14.53;;;;;;;3.30;87.12;92886.97;5108011;28;20230;-75
2023/12/09 08:37:38;;;;;;;17.93;16.43;;;;;;;3.70;84.63;92879.25;5107681;28;20172;-76
2023/12/09 08:40:13;;;;;;;17.23;15.70;;;;;;;3.60;82.58;92884.22;5105468;28;20232;-76
2023/12/09 08:42:39;;;;;;;12.13;11.33;;;;;;;3.11;81.78;92889.94;5106626;28;20179;-76
2023/12/09 08:45:07;;;;;;;13.93;12.83;;;;;;;3.81;81.46;92886.16;5108197;28;20216;-78
2023/12/09 08:47:33;;;;;;;13.53;12.63;;;;;;;4.25;80.32;92890.53;5108684;28;20180;-75
2023/12/09 08:49:58;;;;;;;14.17;13.07;;;;;;;4.17;78.83;92867.66;5105051;28;20283;-75
2023/12/09 08:52:23;;;;;;;17.20;15.70;;;;;;;4.66;78.72;92879.84;5112575;28;20183;-77
2023/12/09 08:54:49;;;;;;;16.17;14.87;;;;;;;4.58;79.80;92887.19;5109088;28;20220;-77
2023/12/09 08:57:14;;;;;;;13.87;12.93;;;;;;;4.02;79.50;92888.09;5088235;28;20240;-76
2023/12/09 08:59:39;;;;;;;15.60;14.37;;;;;;;4.22;80.94;92888.44;5106645;28;20224;-75
2023/12/09 09:02:05;;;;;;;16.73;15.23;;;;;;;3.71;82.54;92874.84;5089696;28;20214;-75
2023/12/09 09:04:30;;;;;;;17.40;16.03;;;;;;;3.55;84.34;92880.75;5098521;28;20316;-75
2023/12/09 09:06:55;;;;;;;16.77;15.17;;;;;;;3.59;84.62;92864.56;5106356;28;20196;-75
2023/12/09 09:09:21;;;;;;;15.53;14.33;;;;;;;4.00;82.93;92884.94;5107489;28;20232;-75
2023/12/09 09:11:46;;;;;;;17.43;15.77;;;;;;;3.37;82.21;92884.28;5107336;28;20184;-75
2023/12/09 09:14:11;;;;;;;15.17;13.93;;;;;;;3.46;83.51;92872.56;5107730;28;20318;-76
2023/12/09 09:16:37;;;;;;;15.90;14.60;;;;;;;3.42;82.09;92886.16;5106849;28;20304;-76
2023/12/09 09:19:03;;;;;;;16.03;14.73;;;;;;;3.20;83.34;92871.31;5107191;28;20220;-74
2023/12/09 09:21:28;;;;;;;15.23;14.03;;;;;;;3.31;84.49;92869.72;5110580;28;20210;-74
2023/12/09 09:23:53;;;;;;;16.07;14.77;;;;;;;3.38;82.40;92870.34;5108930;28;20216;-75
2023/12/09 09:26:19;;;;;;;13.40;12.30;;;;;;;4.06;80.16;92863.34;5111331;28;20732;-74
2023/12/09 09:28:44;;;;;;;14.53;13.50;;;;;;;3.06;83.35;92840.81;5108477;28;20239;-75
2023/12/09 09:31:12;;;;;;;15.93;14.63;;;;;;;2.95;84.35;92864.81;5111315;28;20188;-74
2023/12/09 09:33:38;;;;;;;14.47;13.53;;;;;;;2.93;82.67;92852.16;5108515;28;20327;-74
2023/12/09 09:36:03;;;;;;;16.90;15.47;;;;;;;3.30;82.78;92855.22;5111678;28;20221;-73
2023/12/09 09:38:29;;;;;;;15.73;14.53;;;;;;;2.83;84.27;92851.94;5110835;28;20176;-74
2023/12/09 09:40:55;;;;;;;17.13;15.87;;;;;;;2.86;85.45;92848.13;5089372;28;20176;-73
2023/12/09 09:43:24;;;;;;;14.30;13.13;;;;;;;2.96;84.44;92843.19;5110588;28;20183;-75
2023/12/09 09:45:52;;;;;;;23.73;21.53;;;;;;;3.77;82.05;92840.34;5111332;28;20669;-74
2023/12/09 09:48:23;;;;;;;14.87;13.77;;;;;;;3.26;82.08;92844.59;5110687;28;20207;-72
2023/12/09 09:50:52;;;;;;;15.10;13.70;;;;;;;3.63;81.67;92847.59;5104760;28;20256;-73
2023/12/09 09:53:34;;;;;;;15.67;14.37;;;;;;;3.04;84.07;92842.84;5107277;28;20196;-73
2023/12/09 09:56:01;;;;;;;17.57;16.07;;;;;;;3.77;80.65;92843.72;5111457;28;20192;-74
2023/12/09 09:58:27;;;;;;;15.50;14.27;;;;;;;3.48;83.00;92847.34;5109973;28;20234;-74
2023/12/09 10:00:55;;;;;;;15.07;13.83;;;;;;;3.37;82.47;92837.81;5111354;28;20180;-73
2023/12/09 10:03:21;;;;;;;17.53;16.20;;;;;;;4.06;79.49;92857.41;5110264;28;20208;-74
2023/12/09 10:05:47;;;;;;;15.47;14.27;;;;;;;3.61;81.14;92851.44;5111460;28;20192;-74
2023/12/09 10:08:12;;;;;;;15.27;13.97;;;;;;;3.62;82.11;92843.47;5110869;28;20188;-74
2023/12/09 10:10:38;;;;;;;17.30;15.70;;;;;;;3.43;82.10;92828.38;5092657;28;20216;-73
2023/12/09 10:13:03;;;;;;;17.30;15.63;;;;;;;3.30;82.93;92853.44;5110589;28;20190;-80
2023/12/09 10:15:29;;;;;;;18.47;16.80;;;;;;;3.30;84.28;92837.16;5109311;28;20226;-74
2023/12/09 10:18:00;;;;;;;16.97;15.57;;;;;;;3.02;83.59;92848.22;5098559;28;20390;-75
2023/12/09 10:20:27;;;;;;;17.27;15.67;;;;;;;3.33;82.57;92848.84;5108030;28;20234;-77
2023/12/09 10:22:54;;;;;;;18.23;16.47;;;;;;;3.69;81.02;92848.50;5108356;28;20211;-75
2023/12/09 10:25:23;;;;;;;20.27;18.17;;;;;;;3.57;83.05;92843.38;5110049;28;20234;-80
2023/12/09 10:27:49;;;;;;;18.13;16.53;;;;;;;3.25;82.69;92842.25;5110156;28;20253;-79
2023/12/09 10:30:18;;;;;;;18.80;16.90;;;;;;;3.48;81.23;92846.53;5103885;28;20235;-78
2023/12/09 10:32:47;;;;;;;16.57;15.07;;;;;;;3.61;82.48;92849.63;5109605;28;20236;-79
2023/12/09 10:35:13;;;;;;;18.53;16.67;;;;;;;3.64;81.75;92849.19;5108419;28;20219;-81
2023/12/09 10:37:39;;;;;;;16.00;14.70;;;;;;;3.61;83.06;92828.97;5109095;28;20239;-72
2023/12/09 10:40:06;;;;;;;16.13;14.73;;;;;;;3.28;84.39;92829.66;5102808;28;20283;-84
2023/12/09 10:42:32;;;;;;;17.03;15.70;;;;;;;3.60;82.16;92830.00;5109987;28;20176;-79
2023/12/09 10:44:57;;;;;;;14.87;13.77;;;;;;;4.16;79.73;92840.28;5104617;28;20254;-76
2023/12/09 10:47:25;;;;;;;18.10;16.53;;;;;;;3.40;81.73;92827.03;5108488;28;20192;-81
2023/12/09 10:49:51;;;;;;;16.73;15.37;;;;;;;4.02;80.89;92828.69;5105710;28;20244;-79
2023/12/09 10:52:17;;;;;;;15.93;14.73;;;;;;;4.10;79.17;92836.06;5109318;28;20211;-79
2023/12/09 10:54:42;;;;;;;16.23;14.90;;;;;;;3.98;80.81;92819.84;5108038;28;20239;-76
2023/12/09 10:57:08;;;;;;;15.37;13.93;;;;;;;4.72;79.82;92826.38;5109539;28;20194;-78
2023/12/09 10:59:34;;;;;;;15.83;14.63;;;;;;;4.33;80.74;92817.81;5109096;28;20220;-83
2023/12/09 11:02:00;;;;;;;16.93;15.63;;;;;;;4.34;77.61;92824.53;5108166;28;20192;-74
2023/12/09 11:04:25;;;;;;;14.67;13.60;;;;;;;3.62;81.29;92812.50;5104707;28;20296;-76
2023/12/09 11:06:53;;;;;;;17.50;16.00;;;;;;;3.74;81.66;92813.22;5109686;28;20221;-74
2023/12/09 11:09:19;;;;;;;14.60;13.47;;;;;;;4.45;78.50;92828.84;5109305;28;20227;-75
2023/12/09 11:11:45;;;;;;;15.17;13.87;;;;;;;4.80;76.82;92824.19;5109857;28;20184;-75
2023/12/09 11:14:11;;;;;;;15.43;13.97;;;;;;;4.09;79.38;92816.41;5105159;28;20235;-75
2023/12/09 11:16:42;;;;;;;15.87;14.67;;;;;;;4.52;79.06;92816.56;5108562;28;20195;-74
2023/12/09 11:19:14;;;;;;;15.17;13.87;;;;;;;3.74;79.69;92823.53;5109204;28;20236;-75